Connexion S'enregistrer

Connexion à votre compte

Identifiant
Mot de passe
Maintenir la connexion active sur ce site

Créer un compte

Pour valider ce formulaire, vous devez remplir tous les champs.
Nom
Identifiant
Mot de passe
Répétez le mot de passe
Adresse e-mail
Répétez l'adresse e-mail

Nous contacter

 Téléphone : +33 (0)4 79 54 41 81

Coordonnées détaillées et accès : cliquez ici

 
LFLB °C
    Ferienhaus Ostsee
[source: ADDS]
METAR
LFLB 201630Z AUTO 34007KT CAVOK 12/M01 Q1028 NOSIG =
TAF LFLB 201100Z 2012/2112 36010KT CAVOK TEMPO 2015/2024 36010G20KT
TAF
TAF LFLB 201100Z 2012/2112 36010KT CAVOK TEMPO 2015/2024 36010G20KT =
SR / SS: 05:39 / 17:48 UTC (Lever/Coucher du soleil le 2019-03-20)
JSN Boot template designed by JoomlaShine.com